createdAt,value
2017-07-22T00:00:16.306Z,19.89
2017-07-22T00:01:15.984Z,19.86
2017-07-22T00:02:16.026Z,19.86
2017-07-22T00:03:16.050Z,19.93
2017-07-22T00:04:16.060Z,19.9
2017-07-22T00:05:16.130Z,19.87
2017-07-22T00:06:16.161Z,19.86
2017-07-22T00:07:16.200Z,19.83
2017-07-22T00:08:16.238Z,19.9
2017-07-22T00:09:16.255Z,19.86
2017-07-22T00:10:16.267Z,19.82
2017-07-22T00:11:16.341Z,19.79
2017-07-22T00:12:16.353Z,19.82
2017-07-22T00:13:16.406Z,19.82
2017-07-22T00:14:16.442Z,19.8
2017-07-22T00:15:16.453Z,19.79
2017-07-22T00:16:16.517Z,19.72
2017-07-22T00:17:16.531Z,19.8
2017-07-22T00:18:16.577Z,19.74
2017-07-22T00:19:16.619Z,19.8
2017-07-22T00:20:16.642Z,19.74
2017-07-22T00:21:16.674Z,19.74
2017-07-22T00:22:16.700Z,19.74
2017-07-22T00:23:16.758Z,19.8
2017-07-22T00:24:16.771Z,19.7
2017-07-22T00:25:16.826Z,19.75
2017-07-22T00:26:16.860Z,19.7
2017-07-22T00:27:16.896Z,19.74
2017-07-22T00:28:16.915Z,19.7
2017-07-22T00:29:16.954Z,19.71
2017-07-22T00:30:17.004Z,19.68
2017-07-22T00:31:17.038Z,19.61
2017-07-22T00:32:17.068Z,19.63
2017-07-22T00:33:17.107Z,19.5
2017-07-22T00:34:17.129Z,19.56
2017-07-22T00:35:17.165Z,19.6
2017-07-22T00:36:17.209Z,19.52
2017-07-22T00:37:17.247Z,19.49
2017-07-22T00:38:17.269Z,19.43
2017-07-22T00:39:17.314Z,19.47
2017-07-22T00:40:17.459Z,19.42
2017-07-22T00:41:17.386Z,19.42
2017-07-22T00:42:17.421Z,19.38
2017-07-22T00:43:17.455Z,19.35
2017-07-22T00:44:17.490Z,19.32
2017-07-22T00:45:17.626Z,19.27
2017-07-22T00:46:17.569Z,19.34
2017-07-22T00:47:17.581Z,19.28
2017-07-22T00:48:17.634Z,19.28
2017-07-22T00:49:17.669Z,19.25
2017-07-22T00:50:18.059Z,19.25
2017-07-22T00:51:17.733Z,19.24
2017-07-22T00:52:17.757Z,19.25
2017-07-22T00:53:17.806Z,19.25
2017-07-22T00:54:17.846Z,19.27
2017-07-22T00:55:17.868Z,19.27
2017-07-22T00:56:17.914Z,19.19
2017-07-22T00:57:17.952Z,19.19
2017-07-22T00:58:17.984Z,19.2
2017-07-22T00:59:18.009Z,19.15
2017-07-22T01:00:18.056Z,19.17
2017-07-22T01:01:18.080Z,19.09
2017-07-22T01:02:18.131Z,19.13
2017-07-22T01:03:18.165Z,19.15
2017-07-22T01:04:18.163Z,19.12
2017-07-22T01:05:18.222Z,19.16
2017-07-22T01:06:18.265Z,19.05
2017-07-22T01:07:18.298Z,19.12
2017-07-22T01:08:18.339Z,19.07
2017-07-22T01:09:18.374Z,19.09
2017-07-22T01:10:18.395Z,19.02
2017-07-22T01:11:18.437Z,19.1
2017-07-22T01:12:18.474Z,19
2017-07-22T01:13:18.494Z,19.07
2017-07-22T01:14:18.548Z,18.99
2017-07-22T01:15:18.578Z,19
2017-07-22T01:16:18.619Z,19.06
2017-07-22T01:17:18.629Z,19.13
2017-07-22T01:18:18.678Z,18.97
2017-07-22T01:19:18.732Z,19.06
2017-07-22T01:20:18.754Z,18.99
2017-07-22T01:21:18.782Z,19.06
2017-07-22T01:22:18.805Z,18.96
2017-07-22T01:23:18.863Z,19.02
2017-07-22T01:24:18.865Z,18.96
2017-07-22T01:25:18.927Z,18.91
2017-07-22T01:26:18.966Z,18.96
2017-07-22T01:27:19.036Z,18.9
2017-07-22T01:28:19.036Z,18.91
2017-07-22T01:29:19.053Z,18.87
2017-07-22T01:30:19.097Z,18.81
2017-07-22T01:31:19.440Z,18.79
2017-07-22T01:32:19.172Z,18.79
2017-07-22T01:33:19.203Z,18.78
2017-07-22T01:34:19.242Z,18.75
2017-07-22T01:35:19.262Z,18.69
2017-07-22T01:36:19.390Z,18.72
2017-07-22T01:37:19.342Z,18.76
2017-07-22T01:38:19.386Z,18.76
2017-07-22T01:39:19.400Z,18.75
2017-07-22T01:40:19.452Z,18.76
2017-07-22T01:41:19.602Z,18.75
2017-07-22T01:42:19.505Z,18.71
2017-07-22T01:43:19.556Z,18.66
2017-07-22T01:44:19.580Z,18.65
2017-07-22T01:45:19.614Z,18.68
2017-07-22T01:46:19.641Z,18.68
2017-07-22T01:47:19.672Z,18.66
2017-07-22T01:48:19.725Z,18.63
2017-07-22T01:49:19.762Z,18.66
2017-07-22T01:50:19.782Z,18.71
2017-07-22T01:51:19.832Z,18.66
2017-07-22T01:52:19.855Z,18.59
2017-07-22T01:53:19.894Z,18.6
2017-07-22T01:54:19.927Z,18.61
2017-07-22T01:55:19.975Z,18.59
2017-07-22T01:56:19.994Z,18.54
2017-07-22T01:57:20.034Z,18.61
2017-07-22T01:58:20.288Z,18.59
2017-07-22T01:59:20.110Z,18.65
2017-07-22T02:00:20.144Z,18.75
2017-07-22T02:01:20.171Z,18.72
2017-07-22T02:02:20.197Z,18.72
2017-07-22T02:03:20.244Z,18.71
2017-07-22T02:04:20.262Z,18.71
2017-07-22T02:05:20.317Z,18.68
2017-07-22T02:06:20.351Z,18.65
2017-07-22T02:07:20.388Z,18.75
2017-07-22T02:08:20.431Z,18.59
2017-07-22T02:09:20.466Z,18.63
2017-07-22T02:10:20.473Z,18.56
2017-07-22T02:11:20.993Z,18.56
2017-07-22T02:12:20.834Z,18.6
2017-07-22T02:13:20.595Z,18.53
2017-07-22T02:14:20.627Z,18.6
2017-07-22T02:15:20.669Z,18.53
2017-07-22T02:16:20.698Z,18.56
2017-07-22T02:17:20.721Z,18.56
2017-07-22T02:18:20.784Z,18.53
2017-07-22T02:19:20.794Z,18.42
2017-07-22T02:20:20.842Z,18.38
2017-07-22T02:21:20.876Z,18.5
2017-07-22T02:22:20.903Z,18.36
2017-07-22T02:23:20.941Z,18.38
2017-07-22T02:24:20.977Z,18.41
2017-07-22T02:25:20.995Z,18.38
2017-07-22T02:26:21.064Z,18.41
2017-07-22T02:27:21.177Z,18.32
2017-07-22T02:28:21.098Z,18.35
2017-07-22T02:29:21.150Z,18.42
2017-07-22T02:30:21.181Z,18.36
2017-07-22T02:31:21.220Z,18.23
2017-07-22T02:32:21.362Z,18.34
2017-07-22T02:33:21.288Z,18.21
2017-07-22T02:34:21.323Z,18.34
2017-07-22T02:35:21.353Z,18.35
2017-07-22T02:36:21.383Z,18.39
2017-07-22T02:37:21.684Z,18.41
2017-07-22T02:38:21.443Z,18.47
2017-07-22T02:39:21.498Z,18.39
2017-07-22T02:40:21.536Z,18.36
2017-07-22T02:41:21.558Z,18.41
2017-07-22T02:42:21.599Z,18.41
2017-07-22T02:43:21.638Z,18.38
2017-07-22T02:44:21.682Z,18.38
2017-07-22T02:45:21.699Z,18.44
2017-07-22T02:46:21.739Z,18.39
2017-07-22T02:47:21.756Z,18.42
2017-07-22T02:48:21.797Z,18.39
2017-07-22T02:49:21.827Z,18.42
2017-07-22T02:50:21.877Z,18.36
2017-07-22T02:51:21.897Z,18.41
2017-07-22T02:52:21.936Z,18.41
2017-07-22T02:53:21.943Z,18.41
2017-07-22T02:54:22.009Z,18.51
2017-07-22T02:55:22.053Z,18.49
2017-07-22T02:56:22.084Z,18.54
2017-07-22T02:57:22.104Z,18.44
2017-07-22T02:58:22.157Z,18.53
2017-07-22T02:59:22.183Z,18.54
2017-07-22T03:00:22.207Z,18.59
2017-07-22T03:01:22.294Z,18.54
2017-07-22T03:02:22.296Z,18.56
2017-07-22T03:03:22.329Z,18.49
2017-07-22T03:04:22.361Z,18.57
2017-07-22T03:05:22.395Z,18.54
2017-07-22T03:06:22.429Z,18.5
2017-07-22T03:07:22.441Z,18.42
2017-07-22T03:08:22.482Z,18.38
2017-07-22T03:09:22.518Z,18.42
2017-07-22T03:10:22.571Z,18.42
2017-07-22T03:11:22.593Z,18.41
2017-07-22T03:12:22.649Z,18.42
2017-07-22T03:13:22.676Z,18.47
2017-07-22T03:14:22.689Z,18.39
2017-07-22T03:15:22.737Z,18.47
2017-07-22T03:16:22.772Z,18.44
2017-07-22T03:17:22.805Z,18.42
2017-07-22T03:18:22.841Z,18.41
2017-07-22T03:19:22.848Z,18.41
2017-07-22T03:20:22.904Z,18.36
2017-07-22T03:21:22.946Z,18.39
2017-07-22T03:22:22.985Z,18.42
2017-07-22T03:23:22.997Z,18.42
2017-07-22T03:24:23.060Z,18.41
2017-07-22T03:25:23.061Z,18.41
2017-07-22T03:26:23.120Z,18.42
2017-07-22T03:27:23.138Z,18.42
2017-07-22T03:28:23.194Z,18.42
2017-07-22T03:29:23.235Z,18.39
2017-07-22T03:30:23.258Z,18.39
2017-07-22T03:31:23.294Z,18.41
2017-07-22T03:32:23.339Z,18.47
2017-07-22T03:33:23.358Z,18.38
2017-07-22T03:34:23.395Z,18.44
2017-07-22T03:35:23.426Z,18.42
2017-07-22T03:36:23.471Z,18.5
2017-07-22T03:37:23.483Z,18.51
2017-07-22T03:38:23.537Z,18.44
2017-07-22T03:39:23.567Z,18.53
2017-07-22T03:40:23.583Z,18.47
2017-07-22T03:41:23.638Z,18.54
2017-07-22T03:42:23.647Z,18.51
2017-07-22T03:43:23.694Z,18.57
2017-07-22T03:44:23.712Z,18.57
2017-07-22T03:45:23.773Z,18.68
2017-07-22T03:46:23.786Z,18.65
2017-07-22T03:47:23.851Z,18.63
2017-07-22T03:48:23.873Z,18.6
2017-07-22T03:49:23.893Z,18.6
2017-07-22T03:50:23.966Z,18.57
2017-07-22T03:51:23.985Z,18.56
2017-07-22T03:52:24.022Z,18.61
2017-07-22T03:53:24.052Z,18.6
2017-07-22T03:54:24.066Z,18.61
2017-07-22T03:55:24.121Z,18.68
2017-07-22T03:56:24.145Z,18.66
2017-07-22T03:57:24.200Z,18.75
2017-07-22T03:58:24.220Z,18.66
2017-07-22T03:59:24.257Z,18.75
2017-07-22T04:02:33.084Z,18.81
2017-07-22T04:03:33.141Z,18.78
2017-07-22T04:04:33.164Z,18.84
2017-07-22T04:05:33.206Z,18.9
2017-07-22T04:06:33.244Z,18.97
2017-07-22T04:07:33.266Z,18.91
2017-07-22T04:08:33.308Z,19.05
2017-07-22T04:09:33.338Z,19.1
2017-07-22T04:10:33.400Z,19.17
2017-07-22T04:11:33.408Z,19.17
2017-07-22T04:12:33.459Z,19.27
2017-07-22T04:13:33.479Z,19.4
2017-07-22T04:14:33.504Z,19.49
2017-07-22T04:15:33.549Z,19.53
2017-07-22T04:16:33.568Z,19.52
2017-07-22T04:17:33.624Z,19.65
2017-07-22T04:18:33.657Z,19.57
2017-07-22T04:19:33.685Z,19.63
2017-07-22T04:20:33.707Z,19.68
2017-07-22T04:21:33.757Z,19.64
2017-07-22T04:22:33.805Z,19.65
2017-07-22T04:23:33.779Z,19.71
2017-07-22T04:24:33.865Z,19.71
2017-07-22T04:25:33.902Z,19.68
2017-07-22T04:26:33.943Z,19.74
2017-07-22T04:27:33.971Z,19.72
2017-07-22T04:28:34.006Z,19.79
2017-07-22T04:29:34.040Z,19.9
2017-07-22T04:30:34.072Z,20.01
2017-07-22T04:31:34.102Z,20.05
2017-07-22T04:32:34.141Z,20.11
2017-07-22T04:33:34.217Z,20.16
2017-07-22T04:34:34.210Z,20.19
2017-07-22T04:35:34.255Z,20.22
2017-07-22T04:36:34.286Z,20.32
2017-07-22T04:37:34.319Z,20.4
2017-07-22T04:38:34.352Z,20.48
2017-07-22T04:39:34.395Z,20.64
2017-07-22T04:40:34.405Z,20.6
2017-07-22T04:41:34.457Z,20.61
2017-07-22T04:42:34.501Z,20.61
2017-07-22T04:43:34.531Z,20.57
2017-07-22T04:44:34.570Z,20.68
2017-07-22T04:45:34.605Z,20.68
2017-07-22T04:46:34.642Z,20.6
2017-07-22T04:47:34.677Z,20.63
2017-07-22T04:48:34.699Z,20.6
2017-07-22T04:49:34.747Z,20.6
2017-07-22T04:50:34.795Z,20.68
2017-07-22T04:51:34.820Z,20.78
2017-07-22T04:52:34.841Z,20.81
2017-07-22T04:53:34.880Z,20.83
2017-07-22T04:54:34.927Z,20.78
2017-07-22T04:55:34.917Z,20.76
2017-07-22T04:56:34.996Z,20.81
2017-07-22T04:57:35.036Z,20.78
2017-07-22T04:58:35.073Z,20.78
2017-07-22T04:59:35.108Z,20.79
2017-07-22T05:00:35.123Z,20.86
2017-07-22T05:01:35.213Z,20.94
2017-07-22T05:02:35.197Z,20.94
2017-07-22T05:03:35.251Z,20.78
2017-07-22T05:04:35.290Z,20.81
2017-07-22T05:05:35.324Z,20.83
2017-07-22T05:06:35.366Z,20.81
2017-07-22T05:07:35.405Z,20.79
2017-07-22T05:08:35.443Z,20.94
2017-07-22T05:09:35.439Z,21
2017-07-22T05:10:35.504Z,20.98
2017-07-22T05:11:35.542Z,21.01
2017-07-22T05:12:35.571Z,20.98
2017-07-22T05:13:35.575Z,21
2017-07-22T05:14:35.638Z,21.04
2017-07-22T05:15:35.693Z,21.15
2017-07-22T05:16:35.701Z,21.21
2017-07-22T05:17:35.754Z,21.23
2017-07-22T05:18:35.789Z,21.25
2017-07-22T05:19:35.805Z,21.3
2017-07-22T05:20:35.859Z,21.31
2017-07-22T05:21:35.897Z,21.33
2017-07-22T05:22:35.932Z,21.31
2017-07-22T05:23:35.963Z,21.31
2017-07-22T05:24:35.988Z,21.36
2017-07-22T05:25:36.038Z,21.34
2017-07-22T05:26:36.101Z,21.31
2017-07-22T05:27:36.124Z,21.3
2017-07-22T05:28:36.171Z,21.23
2017-07-22T05:29:36.190Z,21.27
2017-07-22T05:30:36.215Z,21.27
2017-07-22T05:31:36.255Z,21.34
2017-07-22T05:32:36.322Z,21.31
2017-07-22T05:33:36.294Z,21.31
2017-07-22T05:34:36.363Z,21.31
2017-07-22T05:35:36.411Z,21.4
2017-07-22T05:36:36.433Z,21.53
2017-07-22T05:37:36.477Z,21.74
2017-07-22T05:38:36.597Z,21.76
2017-07-22T05:39:36.552Z,21.77
2017-07-22T05:40:36.590Z,21.92
2017-07-22T05:41:36.625Z,22.04
2017-07-22T05:42:36.656Z,22.18
2017-07-22T05:43:36.692Z,22.29
2017-07-22T05:44:36.734Z,22.39
2017-07-22T05:45:36.729Z,22.46
2017-07-22T05:46:36.802Z,22.54
2017-07-22T05:47:36.809Z,22.76
2017-07-22T05:48:36.877Z,22.84
2017-07-22T05:49:36.900Z,22.92
2017-07-22T05:50:36.953Z,22.82
2017-07-22T05:51:36.959Z,22.79
2017-07-22T05:52:37.054Z,22.86
2017-07-22T05:53:37.035Z,22.91
2017-07-22T05:54:37.070Z,22.84
2017-07-22T05:55:37.113Z,22.96
2017-07-22T05:56:37.148Z,23.21
2017-07-22T05:57:37.213Z,23.4
2017-07-22T05:58:37.248Z,23.7
2017-07-22T05:59:37.265Z,23.72
2017-07-22T06:00:37.312Z,23.74
2017-07-22T06:01:37.354Z,23.74
2017-07-22T06:02:37.387Z,23.7
2017-07-22T06:03:37.435Z,23.63
2017-07-22T06:04:37.467Z,23.62
2017-07-22T06:05:37.508Z,23.62
2017-07-22T06:06:37.539Z,23.57
2017-07-22T06:07:37.564Z,23.44
2017-07-22T06:08:37.612Z,23.29
2017-07-22T06:09:37.631Z,23.26
2017-07-22T06:10:37.664Z,23.29
2017-07-22T06:11:37.735Z,23.16
2017-07-22T06:12:37.756Z,23.12
2017-07-22T06:13:37.801Z,23.04
2017-07-22T06:14:37.846Z,22.92
2017-07-22T06:15:37.876Z,22.85
2017-07-22T06:16:37.902Z,22.67
2017-07-22T06:17:37.949Z,22.64
2017-07-22T06:18:37.992Z,22.59
2017-07-22T06:19:38.034Z,22.67
2017-07-22T06:20:38.047Z,22.61
2017-07-22T06:21:38.078Z,22.59
2017-07-22T06:22:38.131Z,22.71
2017-07-22T06:23:38.163Z,22.66
2017-07-22T06:24:38.213Z,22.59
2017-07-22T06:25:38.343Z,22.64
2017-07-22T06:26:38.284Z,22.61
2017-07-22T06:27:38.326Z,22.6
2017-07-22T06:28:38.369Z,22.51
2017-07-22T06:29:38.392Z,22.45
2017-07-22T06:30:38.529Z,22.44
2017-07-22T06:31:38.450Z,22.52
2017-07-22T06:32:38.508Z,22.55
2017-07-22T06:33:38.538Z,22.64
2017-07-22T06:34:38.550Z,22.6
2017-07-22T06:35:38.623Z,22.64
2017-07-22T06:36:38.642Z,22.6
2017-07-22T06:37:38.684Z,22.66
2017-07-22T06:38:38.726Z,22.61
2017-07-22T06:39:38.763Z,22.51
2017-07-22T06:40:38.799Z,22.51
2017-07-22T06:41:38.834Z,22.52
2017-07-22T06:42:38.853Z,22.57
2017-07-22T06:43:38.896Z,22.94
2017-07-22T06:44:39.153Z,23.41
2017-07-22T06:45:38.963Z,23.44
2017-07-22T06:46:39.021Z,23.72
2017-07-22T06:47:39.059Z,23.85
2017-07-22T06:48:39.090Z,23.9
2017-07-22T06:49:39.152Z,24.08
2017-07-22T06:50:39.161Z,24.21
2017-07-22T06:51:39.183Z,24.27
2017-07-22T06:52:39.241Z,24.48
2017-07-22T06:53:39.256Z,24.83
2017-07-22T06:54:39.317Z,25.04
2017-07-22T06:55:39.357Z,25.05
2017-07-22T06:56:39.371Z,25.26
2017-07-22T06:57:39.432Z,25.33
2017-07-22T06:58:39.447Z,25.32
2017-07-22T06:59:39.510Z,25.32
2017-07-22T07:00:39.533Z,25.05
2017-07-22T07:01:39.587Z,24.87
2017-07-22T07:02:39.619Z,24.92
2017-07-22T07:03:39.663Z,24.66
2017-07-22T07:04:39.687Z,24.56
2017-07-22T07:05:39.717Z,24.58
2017-07-22T07:06:39.759Z,24.64
2017-07-22T07:07:39.805Z,24.61
2017-07-22T07:08:39.845Z,24.64
2017-07-22T07:09:39.890Z,24.67
2017-07-22T07:10:39.922Z,24.86
2017-07-22T07:11:39.963Z,25.24
2017-07-22T07:12:39.990Z,25.62
2017-07-22T07:13:40.034Z,25.82
2017-07-22T07:14:40.052Z,26.15
2017-07-22T07:15:40.085Z,25.97
2017-07-22T07:16:40.151Z,25.74
2017-07-22T07:17:40.180Z,25.75
2017-07-22T07:18:40.224Z,26.03
2017-07-22T07:19:40.259Z,26.16
2017-07-22T07:20:40.304Z,26.09
2017-07-22T07:21:40.343Z,26.01
2017-07-22T07:22:40.362Z,25.91
2017-07-22T07:23:40.425Z,25.6
2017-07-22T07:24:40.463Z,25.41
2017-07-22T07:25:40.484Z,25.04
2017-07-22T07:26:40.540Z,24.87
2017-07-22T07:27:40.560Z,24.78
2017-07-22T07:28:40.571Z,24.64
2017-07-22T07:29:40.656Z,24.56
2017-07-22T07:30:40.687Z,24.54
2017-07-22T07:31:40.722Z,24.49
2017-07-22T07:32:40.754Z,24.63
2017-07-22T07:33:40.805Z,24.89
2017-07-22T07:34:40.844Z,25.08
2017-07-22T07:35:40.870Z,25.17
2017-07-22T07:36:40.910Z,25.3
2017-07-22T07:37:40.964Z,25.37
2017-07-22T07:38:40.990Z,25.44
2017-07-22T07:39:41.016Z,25.54
2017-07-22T07:40:41.053Z,25.59
2017-07-22T07:41:41.086Z,25.76
2017-07-22T07:42:41.140Z,25.97
2017-07-22T07:43:41.169Z,25.93
2017-07-22T07:44:41.223Z,26.01
2017-07-22T07:45:41.259Z,26.15
2017-07-22T07:46:41.307Z,26.6
2017-07-22T07:47:41.312Z,27.41
2017-07-22T07:48:41.370Z,27.8
2017-07-22T07:49:41.422Z,27.93
2017-07-22T07:50:41.455Z,28.08
2017-07-22T07:51:41.500Z,28.11
2017-07-22T07:52:41.529Z,28.24
2017-07-22T07:53:41.584Z,29.01
2017-07-22T07:54:41.572Z,29.97
2017-07-22T07:55:41.648Z,31.36
2017-07-22T07:56:41.690Z,32.03
2017-07-22T07:57:41.730Z,32.01
2017-07-22T07:58:41.775Z,32.54
2017-07-22T07:59:41.806Z,32.8
2017-07-22T08:00:41.848Z,32.43
2017-07-22T08:01:41.924Z,31.56
2017-07-22T08:02:41.937Z,31.33
2017-07-22T08:03:41.955Z,30.94
2017-07-22T08:04:42.011Z,30.48
2017-07-22T08:05:42.054Z,29.87
2017-07-22T08:06:42.095Z,29.48
2017-07-22T08:07:42.136Z,29.1
2017-07-22T08:08:42.175Z,28.6
2017-07-22T08:09:42.222Z,28.36
2017-07-22T08:10:42.256Z,28.08
2017-07-22T08:11:42.295Z,27.83
2017-07-22T08:12:42.337Z,27.64
2017-07-22T08:13:42.362Z,27.55
2017-07-22T08:14:42.414Z,27.42
2017-07-22T08:15:42.464Z,27.31
2017-07-22T08:16:42.488Z,27.12
2017-07-22T08:17:42.541Z,27.04
2017-07-22T08:18:42.558Z,27.04
2017-07-22T08:19:42.627Z,27
2017-07-22T08:20:42.656Z,26.89
2017-07-22T08:21:42.693Z,26.87
2017-07-22T08:22:42.735Z,26.89
2017-07-22T08:23:42.770Z,27.01
2017-07-22T08:24:42.816Z,27
2017-07-22T08:25:42.858Z,26.99
2017-07-22T08:26:42.898Z,26.93
2017-07-22T08:27:43.147Z,26.87
2017-07-22T08:28:43.273Z,26.97
2017-07-22T08:29:43.005Z,27.11
2017-07-22T08:30:43.217Z,27.31
2017-07-22T08:31:43.505Z,27.55
2017-07-22T08:32:43.131Z,27.66
2017-07-22T08:33:43.178Z,27.91
2017-07-22T08:34:43.223Z,27.87
2017-07-22T08:35:43.395Z,27.72
2017-07-22T08:36:43.290Z,27.48
2017-07-22T08:37:43.322Z,27.38
2017-07-22T08:38:43.363Z,27.23
2017-07-22T08:39:43.403Z,27.23
2017-07-22T08:40:43.472Z,27.11
2017-07-22T08:41:43.486Z,27.13
2017-07-22T08:42:43.527Z,27.01
2017-07-22T08:43:43.554Z,27.05
2017-07-22T08:44:43.597Z,27
2017-07-22T08:45:43.645Z,26.96
2017-07-22T08:46:43.664Z,26.93
2017-07-22T08:47:43.734Z,26.93
2017-07-22T08:48:43.771Z,27
2017-07-22T08:49:43.805Z,27
2017-07-22T08:50:43.837Z,27.05
2017-07-22T08:51:43.866Z,27
2017-07-22T08:52:43.900Z,26.81
2017-07-22T08:53:43.965Z,26.68
2017-07-22T08:54:43.999Z,26.63
2017-07-22T08:55:44.048Z,26.5
2017-07-22T08:56:44.083Z,26.44
2017-07-22T08:57:44.112Z,26.49
2017-07-22T08:58:44.164Z,26.41
2017-07-22T08:59:44.182Z,26.37
2017-07-22T09:00:44.226Z,26.45
2017-07-22T09:01:44.290Z,26.49
2017-07-22T09:02:44.313Z,26.44
2017-07-22T09:03:44.335Z,26.52
2017-07-22T09:04:44.392Z,26.47
2017-07-22T09:05:44.427Z,26.53
2017-07-22T09:06:44.479Z,26.52
2017-07-22T09:07:44.509Z,26.47
2017-07-22T09:08:44.552Z,26.64
2017-07-22T09:09:44.580Z,26.72
2017-07-22T09:10:44.628Z,26.69
2017-07-22T09:11:44.661Z,26.94
2017-07-22T09:12:44.687Z,27.16
2017-07-22T09:13:44.762Z,27.19
2017-07-22T09:14:44.778Z,27.04
2017-07-22T09:15:44.814Z,27.12
2017-07-22T09:16:44.847Z,27.18
2017-07-22T09:17:44.893Z,27.01
2017-07-22T09:18:44.939Z,27.01
2017-07-22T09:19:44.977Z,27.05
2017-07-22T09:20:44.996Z,26.89
2017-07-22T09:21:45.058Z,26.84
2017-07-22T09:22:45.076Z,26.84
2017-07-22T09:23:45.131Z,26.81
2017-07-22T09:24:45.170Z,26.78
2017-07-22T09:25:45.209Z,26.75
2017-07-22T09:26:45.258Z,26.82
2017-07-22T09:27:45.297Z,26.89
2017-07-22T09:28:45.325Z,26.89
2017-07-22T09:29:45.351Z,26.75
2017-07-22T09:30:45.359Z,26.71
2017-07-22T09:31:45.429Z,26.49
2017-07-22T09:32:45.486Z,26.5
2017-07-22T09:33:45.505Z,26.57
2017-07-22T09:34:45.559Z,26.56
2017-07-22T09:35:45.586Z,26.59
2017-07-22T09:36:45.664Z,26.68
2017-07-22T09:37:45.682Z,26.74
2017-07-22T09:38:45.710Z,26.94
2017-07-22T09:39:45.765Z,26.99
2017-07-22T09:40:45.784Z,27.15
2017-07-22T09:41:45.842Z,27.3
2017-07-22T09:42:45.896Z,27.49
2017-07-22T09:43:45.911Z,27.74
2017-07-22T09:44:45.980Z,27.9
2017-07-22T09:45:45.986Z,27.87
2017-07-22T09:46:46.011Z,27.94
2017-07-22T09:47:46.076Z,27.96
2017-07-22T09:48:46.113Z,28.12
2017-07-22T09:49:46.138Z,28.01
2017-07-22T09:50:46.190Z,27.99
2017-07-22T09:51:46.241Z,28.05
2017-07-22T09:52:46.264Z,28.05
2017-07-22T09:53:46.319Z,28.24
2017-07-22T09:54:46.351Z,28.38
2017-07-22T09:55:46.389Z,28.42
2017-07-22T09:56:46.434Z,28.54
2017-07-22T09:57:46.464Z,28.55
2017-07-22T09:58:46.503Z,28.55
2017-07-22T09:59:46.546Z,28.6
2017-07-22T10:00:46.588Z,28.97
2017-07-22T10:01:46.627Z,29.08
2017-07-22T10:02:46.656Z,29.17
2017-07-22T10:03:46.693Z,29.17
2017-07-22T10:04:46.740Z,29.24
2017-07-22T10:05:46.785Z,29.28
2017-07-22T10:06:46.836Z,29.38
2017-07-22T10:07:46.885Z,29.6
2017-07-22T10:08:46.903Z,29.57
2017-07-22T10:09:47.150Z,29.48
2017-07-22T10:10:46.976Z,29.55
2017-07-22T10:11:47.006Z,29.38
2017-07-22T10:12:47.056Z,29.38
2017-07-22T10:13:47.083Z,29.66
2017-07-22T10:14:47.115Z,29.77
2017-07-22T10:15:47.178Z,29.87
2017-07-22T10:16:47.222Z,29.95
2017-07-22T10:17:47.262Z,30.18
2017-07-22T10:18:47.294Z,30.34
2017-07-22T10:19:47.341Z,30.4
2017-07-22T10:20:47.389Z,30.44
2017-07-22T10:21:47.419Z,30.54
2017-07-22T10:22:47.462Z,30.84
2017-07-22T10:23:47.505Z,32.1
2017-07-22T10:24:47.545Z,32.8
2017-07-22T10:25:47.587Z,33.97
2017-07-22T10:26:47.622Z,34.94
2017-07-22T10:27:47.668Z,35.98
2017-07-22T10:28:47.707Z,36.7
2017-07-22T10:29:47.759Z,37.22
2017-07-22T10:30:47.796Z,37.18
2017-07-22T10:31:47.810Z,37.09
2017-07-22T10:32:47.878Z,37.15
2017-07-22T10:33:47.911Z,37.14
2017-07-22T10:34:47.963Z,36.99
2017-07-22T10:35:48.025Z,37.3
2017-07-22T10:36:48.036Z,37.41
2017-07-22T10:37:48.092Z,37.37
2017-07-22T10:38:48.128Z,37.41
2017-07-22T10:39:48.171Z,36.88
2017-07-22T10:40:48.193Z,36.12
2017-07-22T10:41:48.272Z,35.38
2017-07-22T10:42:48.298Z,34.81
2017-07-22T10:43:48.344Z,34.49
2017-07-22T10:44:48.392Z,34.26
2017-07-22T10:45:48.427Z,34.02
2017-07-22T10:46:48.469Z,33.75
2017-07-22T10:47:48.508Z,33.55
2017-07-22T10:48:48.524Z,33.36
2017-07-22T10:49:48.607Z,32.76
2017-07-22T10:50:48.630Z,32.31
2017-07-22T10:51:48.680Z,31.68
2017-07-22T10:52:48.714Z,31.07
2017-07-22T10:53:48.761Z,30.93
2017-07-22T10:54:48.806Z,30.86
2017-07-22T10:55:48.858Z,30.66
2017-07-22T10:56:48.882Z,30.35
2017-07-22T10:57:48.930Z,30.21
2017-07-22T10:58:48.990Z,30.28
2017-07-22T10:59:48.991Z,30.24
2017-07-22T11:00:49.043Z,30.16
2017-07-22T11:01:49.093Z,30.26
2017-07-22T11:02:49.130Z,30.28
2017-07-22T11:03:49.178Z,30.29
2017-07-22T11:04:49.212Z,30.13
2017-07-22T11:05:49.445Z,30.1
2017-07-22T11:06:49.296Z,29.98
2017-07-22T11:07:49.513Z,29.97
2017-07-22T11:08:49.377Z,29.75
2017-07-22T11:09:49.385Z,29.69
2017-07-22T11:10:49.456Z,29.7
2017-07-22T11:11:49.499Z,29.77
2017-07-22T11:12:49.519Z,29.75
2017-07-22T11:13:49.580Z,29.66
2017-07-22T11:14:49.603Z,29.85
2017-07-22T11:15:49.691Z,29.81
2017-07-22T11:16:49.700Z,29.88
2017-07-22T11:17:49.735Z,29.81
2017-07-22T11:18:49.811Z,29.67
2017-07-22T11:19:49.806Z,29.63
2017-07-22T11:20:49.838Z,29.61
2017-07-22T11:21:49.903Z,29.65
2017-07-22T11:22:49.943Z,29.67
2017-07-22T11:23:49.982Z,29.65
2017-07-22T11:24:50.003Z,29.61
2017-07-22T11:25:50.065Z,29.51
2017-07-22T11:26:50.121Z,29.52
2017-07-22T11:27:50.114Z,29.6
2017-07-22T11:28:50.192Z,29.81
2017-07-22T11:29:50.215Z,29.75
2017-07-22T11:30:50.245Z,29.84
2017-07-22T11:31:50.309Z,29.77
2017-07-22T11:32:50.350Z,29.75
2017-07-22T11:33:50.386Z,29.67
2017-07-22T11:34:50.431Z,29.63
2017-07-22T11:35:50.479Z,29.38
2017-07-22T11:36:50.515Z,29.42
2017-07-22T11:37:50.559Z,29.23
2017-07-22T11:38:50.597Z,29.21
2017-07-22T11:39:50.614Z,29.14
2017-07-22T11:40:50.648Z,29.01
2017-07-22T11:41:50.708Z,29.01
2017-07-22T11:42:50.748Z,29.08
2017-07-22T11:43:50.785Z,29.01
2017-07-22T11:44:50.834Z,28.97
2017-07-22T11:45:50.856Z,28.95
2017-07-22T11:46:50.907Z,29.01
2017-07-22T11:47:50.955Z,28.92
2017-07-22T11:48:50.989Z,28.82
2017-07-22T11:49:51.020Z,28.7
2017-07-22T11:50:51.066Z,28.61
2017-07-22T11:51:51.104Z,28.54
2017-07-22T11:52:51.147Z,28.42
2017-07-22T11:53:51.182Z,28.35
2017-07-22T11:54:51.226Z,28.24
2017-07-22T11:55:51.239Z,28.14
2017-07-22T11:56:51.301Z,28.03
2017-07-22T11:57:51.333Z,27.96
2017-07-22T11:58:51.375Z,27.79
2017-07-22T11:59:51.429Z,27.71
2017-07-22T12:00:51.449Z,27.64
2017-07-22T12:01:51.526Z,27.66
2017-07-22T12:02:51.545Z,27.61
2017-07-22T12:03:51.567Z,27.68
2017-07-22T12:04:51.627Z,27.64
2017-07-22T12:05:51.659Z,27.57
2017-07-22T12:06:51.695Z,27.66
2017-07-22T12:07:51.741Z,27.55
2017-07-22T12:08:51.775Z,27.57
2017-07-22T12:09:51.818Z,27.57
2017-07-22T12:10:51.855Z,27.45
2017-07-22T12:11:51.924Z,27.43
2017-07-22T12:12:51.948Z,27.45
2017-07-22T12:13:51.988Z,27.36
2017-07-22T12:14:52.031Z,27.37
2017-07-22T12:15:52.045Z,27.33
2017-07-22T12:16:52.091Z,27.38
2017-07-22T12:17:52.131Z,27.33
2017-07-22T12:18:52.180Z,27.28
2017-07-22T12:19:52.225Z,27.27
2017-07-22T12:20:52.232Z,27.27
2017-07-22T12:21:52.297Z,27.21
2017-07-22T12:22:52.330Z,27.16
2017-07-22T12:23:52.358Z,27.15
2017-07-22T12:24:52.402Z,27.08
2017-07-22T12:25:52.444Z,27.01
2017-07-22T12:26:52.482Z,26.84
2017-07-22T12:27:52.536Z,26.54
2017-07-22T12:28:52.567Z,26.16
2017-07-22T12:29:52.616Z,25.78
2017-07-22T12:30:52.648Z,25.51
2017-07-22T12:31:52.693Z,25.33
2017-07-22T12:32:52.733Z,25.09
2017-07-22T12:33:52.757Z,24.92
2017-07-22T12:34:52.794Z,24.75
2017-07-22T12:35:52.840Z,24.74
2017-07-22T12:36:52.865Z,24.52
2017-07-22T12:37:52.922Z,24.42
2017-07-22T12:38:52.933Z,24.34
2017-07-22T12:39:52.981Z,24.26
2017-07-22T12:40:53.027Z,24.15
2017-07-22T12:41:53.083Z,24.07
2017-07-22T12:42:53.113Z,24.11
2017-07-22T12:43:53.147Z,24.11
2017-07-22T12:44:53.189Z,24.12
2017-07-22T12:45:53.228Z,24.14
2017-07-22T12:46:53.269Z,24
2017-07-22T12:47:53.305Z,23.96
2017-07-22T12:48:53.331Z,23.78
2017-07-22T12:49:53.368Z,23.77
2017-07-22T12:50:53.417Z,23.71
2017-07-22T12:51:53.443Z,23.66
2017-07-22T12:52:53.499Z,23.47
2017-07-22T12:53:53.528Z,23.5
2017-07-22T12:54:53.766Z,23.48
2017-07-22T12:55:53.612Z,23.55
2017-07-22T12:56:53.643Z,23.42
2017-07-22T12:57:53.673Z,23.48